sensor_id;sensor_type;location;lat;lon;timestamp;temperature;humidity
4856;DHT22;2442;48.676;7.986;2022-10-30T00:01:59;12.50;99.90
4856;DHT22;2442;48.676;7.986;2022-10-30T00:04:26;12.50;99.90
4856;DHT22;2442;48.676;7.986;2022-10-30T00:06:53;12.40;99.90
4856;DHT22;2442;48.676;7.986;2022-10-30T00:09:20;12.40;99.90
4856;DHT22;2442;48.676;7.986;2022-10-30T00:11:47;12.60;99.90
4856;DHT22;2442;48.676;7.986;2022-10-30T00:14:15;12.50;99.90
4856;DHT22;2442;48.676;7.986;2022-10-30T00:16:42;12.40;99.90
4856;DHT22;2442;48.676;7.986;2022-10-30T00:19:09;12.20;99.90
4856;DHT22;2442;48.676;7.986;2022-10-30T00:21:36;12.20;99.90
4856;DHT22;2442;48.676;7.986;2022-10-30T00:24:03;12.30;99.90
4856;DHT22;2442;48.676;7.986;2022-10-30T00:26:30;12.20;99.90
4856;DHT22;2442;48.676;7.986;2022-10-30T00:28:58;12.20;99.90
4856;DHT22;2442;48.676;7.986;2022-10-30T00:31:26;12.10;99.90
4856;DHT22;2442;48.676;7.986;2022-10-30T00:33:54;12.00;99.90
4856;DHT22;2442;48.676;7.986;2022-10-30T00:36:22;12.20;99.90
4856;DHT22;2442;48.676;7.986;2022-10-30T00:38:49;12.10;99.90
4856;DHT22;2442;48.676;7.986;2022-10-30T00:41:19;12.00;99.90
4856;DHT22;2442;48.676;7.986;2022-10-30T00:43:47;12.00;99.90
4856;DHT22;2442;48.676;7.986;2022-10-30T00:46:17;12.10;99.90
4856;DHT22;2442;48.676;7.986;2022-10-30T00:48:51;12.00;99.90
4856;DHT22;2442;48.676;7.986;2022-10-30T00:51:20;12.20;99.90
4856;DHT22;2442;48.676;7.986;2022-10-30T00:53:48;12.10;99.90
4856;DHT22;2442;48.676;7.986;2022-10-30T00:56:18;12.00;99.90
4856;DHT22;2442;48.676;7.986;2022-10-30T00:58:51;12.00;99.90
4856;DHT22;2442;48.676;7.986;2022-10-30T01:01:23;11.90;99.90
4856;DHT22;2442;48.676;7.986;2022-10-30T01:03:55;11.90;99.90
4856;DHT22;2442;48.676;7.986;2022-10-30T01:06:24;11.90;99.90
4856;DHT22;2442;48.676;7.986;2022-10-30T01:08:53;11.80;99.90
4856;DHT22;2442;48.676;7.986;2022-10-30T01:11:22;11.80;99.90
4856;DHT22;2442;48.676;7.986;2022-10-30T01:13:50;11.70;99.90
4856;DHT22;2442;48.676;7.986;2022-10-30T01:16:43;11.60;99.90
4856;DHT22;2442;48.676;7.986;2022-10-30T01:19:25;11.50;99.90
4856;DHT22;2442;48.676;7.986;2022-10-30T01:22:11;11.40;99.90
4856;DHT22;2442;48.676;7.986;2022-10-30T01:24:50;11.30;99.90
4856;DHT22;2442;48.676;7.986;2022-10-30T01:27:36;11.30;99.90
4856;DHT22;2442;48.676;7.986;2022-10-30T01:30:15;11.40;99.90
4856;DHT22;2442;48.676;7.986;2022-10-30T01:32:56;11.40;99.90
4856;DHT22;2442;48.676;7.986;2022-10-30T01:35:38;11.40;99.90
4856;DHT22;2442;48.676;7.986;2022-10-30T01:38:12;11.50;99.90
4856;DHT22;2442;48.676;7.986;2022-10-30T01:40:42;11.50;99.90
4856;DHT22;2442;48.676;7.986;2022-10-30T01:43:10;11.60;99.90
4856;DHT22;2442;48.676;7.986;2022-10-30T01:45:49;11.50;99.90
4856;DHT22;2442;48.676;7.986;2022-10-30T01:48:40;11.10;99.90
4856;DHT22;2442;48.676;7.986;2022-10-30T01:51:45;11.20;99.90
4856;DHT22;2442;48.676;7.986;2022-10-30T01:54:22;11.30;99.90
4856;DHT22;2442;48.676;7.986;2022-10-30T01:57:02;11.40;99.90
4856;DHT22;2442;48.676;7.986;2022-10-30T01:59:36;11.60;99.90
4856;DHT22;2442;48.676;7.986;2022-10-30T02:02:08;11.60;99.90
4856;DHT22;2442;48.676;7.986;2022-10-30T02:04:35;11.50;99.90
4856;DHT22;2442;48.676;7.986;2022-10-30T02:07:04;11.30;99.90
4856;DHT22;2442;48.676;7.986;2022-10-30T02:09:32;11.00;99.90
4856;DHT22;2442;48.676;7.986;2022-10-30T02:12:00;10.70;99.90
4856;DHT22;2442;48.676;7.986;2022-10-30T02:14:31;10.60;99.90
4856;DHT22;2442;48.676;7.986;2022-10-30T02:17:03;10.50;99.90
4856;DHT22;2442;48.676;7.986;2022-10-30T02:19:31;10.50;99.90
4856;DHT22;2442;48.676;7.986;2022-10-30T02:22:00;10.40;99.90
4856;DHT22;2442;48.676;7.986;2022-10-30T02:24:27;10.30;99.90
4856;DHT22;2442;48.676;7.986;2022-10-30T02:26:54;10.70;99.90
4856;DHT22;2442;48.676;7.986;2022-10-30T02:29:22;10.80;99.90
4856;DHT22;2442;48.676;7.986;2022-10-30T02:31:49;10.70;99.90
4856;DHT22;2442;48.676;7.986;2022-10-30T02:34:16;10.70;99.90
4856;DHT22;2442;48.676;7.986;2022-10-30T02:36:43;10.80;99.90
4856;DHT22;2442;48.676;7.986;2022-10-30T02:39:11;10.70;99.90
4856;DHT22;2442;48.676;7.986;2022-10-30T02:41:38;10.90;99.90
4856;DHT22;2442;48.676;7.986;2022-10-30T02:44:05;10.90;99.90
4856;DHT22;2442;48.676;7.986;2022-10-30T02:46:33;10.90;99.90
4856;DHT22;2442;48.676;7.986;2022-10-30T02:49:00;11.00;99.90
4856;DHT22;2442;48.676;7.986;2022-10-30T02:51:27;11.00;99.90
4856;DHT22;2442;48.676;7.986;2022-10-30T02:53:54;11.00;99.90
4856;DHT22;2442;48.676;7.986;2022-10-30T02:56:22;11.00;99.90
4856;DHT22;2442;48.676;7.986;2022-10-30T02:58:49;11.00;99.90
4856;DHT22;2442;48.676;7.986;2022-10-30T03:01:18;11.00;99.90
4856;DHT22;2442;48.676;7.986;2022-10-30T03:03:46;11.00;99.90
4856;DHT22;2442;48.676;7.986;2022-10-30T03:06:15;11.10;99.90
4856;DHT22;2442;48.676;7.986;2022-10-30T03:08:43;11.10;99.90
4856;DHT22;2442;48.676;7.986;2022-10-30T03:11:12;10.90;99.90
4856;DHT22;2442;48.676;7.986;2022-10-30T03:13:43;10.60;99.90
4856;DHT22;2442;48.676;7.986;2022-10-30T03:16:13;10.70;99.90
4856;DHT22;2442;48.676;7.986;2022-10-30T03:18:41;10.60;99.90
4856;DHT22;2442;48.676;7.986;2022-10-30T03:21:10;10.50;99.90
4856;DHT22;2442;48.676;7.986;2022-10-30T03:23:38;10.40;99.90
4856;DHT22;2442;48.676;7.986;2022-10-30T03:26:06;10.40;99.90
4856;DHT22;2442;48.676;7.986;2022-10-30T03:28:33;10.40;99.90
4856;DHT22;2442;48.676;7.986;2022-10-30T03:31:03;10.50;99.90
4856;DHT22;2442;48.676;7.986;2022-10-30T03:33:32;10.40;99.90
4856;DHT22;2442;48.676;7.986;2022-10-30T03:35:59;10.50;99.90
4856;DHT22;2442;48.676;7.986;2022-10-30T03:38:26;10.30;99.90
4856;DHT22;2442;48.676;7.986;2022-10-30T03:40:54;10.20;99.90
4856;DHT22;2442;48.676;7.986;2022-10-30T03:43:21;10.20;99.90
4856;DHT22;2442;48.676;7.986;2022-10-30T03:45:49;10.30;99.90
4856;DHT22;2442;48.676;7.986;2022-10-30T03:48:21;10.40;99.90
4856;DHT22;2442;48.676;7.986;2022-10-30T03:50:48;10.20;99.90
4856;DHT22;2442;48.676;7.986;2022-10-30T03:53:17;10.10;99.90
4856;DHT22;2442;48.676;7.986;2022-10-30T03:55:45;10.30;99.90
4856;DHT22;2442;48.676;7.986;2022-10-30T03:58:12;10.20;99.90
4856;DHT22;2442;48.676;7.986;2022-10-30T04:00:39;10.20;99.90
4856;DHT22;2442;48.676;7.986;2022-10-30T04:03:07;10.20;99.90
4856;DHT22;2442;48.676;7.986;2022-10-30T04:05:37;10.20;99.90
4856;DHT22;2442;48.676;7.986;2022-10-30T04:08:05;10.30;99.90
4856;DHT22;2442;48.676;7.986;2022-10-30T04:10:35;10.20;99.90
4856;DHT22;2442;48.676;7.986;2022-10-30T04:13:04;10.10;99.90
4856;DHT22;2442;48.676;7.986;2022-10-30T04:15:32;10.10;99.90
4856;DHT22;2442;48.676;7.986;2022-10-30T04:18:00;10.10;99.90
4856;DHT22;2442;48.676;7.986;2022-10-30T04:20:27;10.20;99.90
4856;DHT22;2442;48.676;7.986;2022-10-30T04:22:57;10.10;99.90
4856;DHT22;2442;48.676;7.986;2022-10-30T04:25:25;10.10;99.90
4856;DHT22;2442;48.676;7.986;2022-10-30T04:27:53;10.20;99.90
4856;DHT22;2442;48.676;7.986;2022-10-30T04:30:21;10.20;99.90
4856;DHT22;2442;48.676;7.986;2022-10-30T04:32:50;10.20;99.90
4856;DHT22;2442;48.676;7.986;2022-10-30T04:35:20;10.00;99.90
4856;DHT22;2442;48.676;7.986;2022-10-30T04:37:51;10.00;99.90
4856;DHT22;2442;48.676;7.986;2022-10-30T04:40:21;10.00;99.90
4856;DHT22;2442;48.676;7.986;2022-10-30T04:42:49;10.00;99.90
4856;DHT22;2442;48.676;7.986;2022-10-30T04:45:17;9.90;99.90
4856;DHT22;2442;48.676;7.986;2022-10-30T04:47:44;9.90;99.90
4856;DHT22;2442;48.676;7.986;2022-10-30T04:50:12;9.80;99.90
4856;DHT22;2442;48.676;7.986;2022-10-30T04:52:39;9.70;99.90
4856;DHT22;2442;48.676;7.986;2022-10-30T04:55:08;9.70;99.90
4856;DHT22;2442;48.676;7.986;2022-10-30T04:57:37;9.70;99.90
4856;DHT22;2442;48.676;7.986;2022-10-30T05:00:06;9.60;99.90
4856;DHT22;2442;48.676;7.986;2022-10-30T05:02:34;9.70;99.90
4856;DHT22;2442;48.676;7.986;2022-10-30T05:05:02;9.70;99.90
4856;DHT22;2442;48.676;7.986;2022-10-30T05:07:30;9.60;99.90
4856;DHT22;2442;48.676;7.986;2022-10-30T05:09:57;9.70;99.90
4856;DHT22;2442;48.676;7.986;2022-10-30T05:12:24;9.70;99.90
4856;DHT22;2442;48.676;7.986;2022-10-30T05:14:52;9.70;99.90
4856;DHT22;2442;48.676;7.986;2022-10-30T05:17:19;9.50;99.90
4856;DHT22;2442;48.676;7.986;2022-10-30T05:19:47;9.40;99.90
4856;DHT22;2442;48.676;7.986;2022-10-30T05:22:14;9.40;99.90
4856;DHT22;2442;48.676;7.986;2022-10-30T05:24:41;9.30;99.90
4856;DHT22;2442;48.676;7.986;2022-10-30T05:27:08;9.40;99.90
4856;DHT22;2442;48.676;7.986;2022-10-30T05:29:35;9.40;99.90
4856;DHT22;2442;48.676;7.986;2022-10-30T05:32:03;9.50;99.90
4856;DHT22;2442;48.676;7.986;2022-10-30T05:34:31;9.60;99.90
4856;DHT22;2442;48.676;7.986;2022-10-30T05:36:57;9.50;99.90
4856;DHT22;2442;48.676;7.986;2022-10-30T05:39:26;9.40;99.90
4856;DHT22;2442;48.676;7.986;2022-10-30T05:41:53;9.50;99.90
4856;DHT22;2442;48.676;7.986;2022-10-30T05:44:20;9.30;99.90
4856;DHT22;2442;48.676;7.986;2022-10-30T05:46:47;9.30;99.90
4856;DHT22;2442;48.676;7.986;2022-10-30T05:49:15;9.30;99.90
4856;DHT22;2442;48.676;7.986;2022-10-30T05:51:43;9.30;99.90
4856;DHT22;2442;48.676;7.986;2022-10-30T05:54:10;9.30;99.90
4856;DHT22;2442;48.676;7.986;2022-10-30T05:56:37;9.40;99.90
4856;DHT22;2442;48.676;7.986;2022-10-30T05:59:04;9.30;99.90
4856;DHT22;2442;48.676;7.986;2022-10-30T06:01:31;9.40;99.90
4856;DHT22;2442;48.676;7.986;2022-10-30T06:03:58;9.40;99.90
4856;DHT22;2442;48.676;7.986;2022-10-30T06:06:26;9.40;99.90
4856;DHT22;2442;48.676;7.986;2022-10-30T06:08:53;9.40;99.90
4856;DHT22;2442;48.676;7.986;2022-10-30T06:11:20;9.30;99.90
4856;DHT22;2442;48.676;7.986;2022-10-30T06:13:47;9.30;99.90
4856;DHT22;2442;48.676;7.986;2022-10-30T06:16:14;9.30;99.90
4856;DHT22;2442;48.676;7.986;2022-10-30T06:18:41;9.30;99.90
4856;DHT22;2442;48.676;7.986;2022-10-30T06:21:08;9.20;99.90
4856;DHT22;2442;48.676;7.986;2022-10-30T06:23:37;9.10;99.90
4856;DHT22;2442;48.676;7.986;2022-10-30T06:26:04;9.20;99.90
4856;DHT22;2442;48.676;7.986;2022-10-30T06:28:31;9.30;99.90
4856;DHT22;2442;48.676;7.986;2022-10-30T06:30:58;9.50;99.90
4856;DHT22;2442;48.676;7.986;2022-10-30T06:33:25;9.40;99.90
4856;DHT22;2442;48.676;7.986;2022-10-30T06:35:52;9.30;99.90
4856;DHT22;2442;48.676;7.986;2022-10-30T06:38:19;9.30;99.90
4856;DHT22;2442;48.676;7.986;2022-10-30T06:40:48;9.50;99.90
4856;DHT22;2442;48.676;7.986;2022-10-30T06:43:15;9.60;99.90
4856;DHT22;2442;48.676;7.986;2022-10-30T06:45:43;9.80;99.90
4856;DHT22;2442;48.676;7.986;2022-10-30T06:48:10;9.80;99.90
4856;DHT22;2442;48.676;7.986;2022-10-30T06:50:37;9.80;99.90
4856;DHT22;2442;48.676;7.986;2022-10-30T06:53:04;9.90;99.90
4856;DHT22;2442;48.676;7.986;2022-10-30T06:55:31;9.70;99.90
4856;DHT22;2442;48.676;7.986;2022-10-30T06:57:59;9.60;99.90
4856;DHT22;2442;48.676;7.986;2022-10-30T07:00:26;9.60;99.90
4856;DHT22;2442;48.676;7.986;2022-10-30T07:02:55;9.60;99.90
4856;DHT22;2442;48.676;7.986;2022-10-30T07:05:23;9.70;99.90
4856;DHT22;2442;48.676;7.986;2022-10-30T07:07:50;9.60;99.90
4856;DHT22;2442;48.676;7.986;2022-10-30T07:10:17;9.80;99.90
4856;DHT22;2442;48.676;7.986;2022-10-30T07:12:51;9.90;99.90
4856;DHT22;2442;48.676;7.986;2022-10-30T07:15:20;10.00;99.90
4856;DHT22;2442;48.676;7.986;2022-10-30T07:17:54;10.20;99.90
4856;DHT22;2442;48.676;7.986;2022-10-30T07:20:22;10.10;99.90
4856;DHT22;2442;48.676;7.986;2022-10-30T07:22:49;10.10;99.90
4856;DHT22;2442;48.676;7.986;2022-10-30T07:25:17;10.20;99.90
4856;DHT22;2442;48.676;7.986;2022-10-30T07:27:45;10.40;99.90
4856;DHT22;2442;48.676;7.986;2022-10-30T07:30:15;10.50;99.90
4856;DHT22;2442;48.676;7.986;2022-10-30T07:32:45;10.70;99.90
4856;DHT22;2442;48.676;7.986;2022-10-30T07:35:13;10.80;99.90
4856;DHT22;2442;48.676;7.986;2022-10-30T07:37:40;10.90;99.90
4856;DHT22;2442;48.676;7.986;2022-10-30T07:40:08;11.00;99.90
4856;DHT22;2442;48.676;7.986;2022-10-30T07:42:35;11.20;99.90
4856;DHT22;2442;48.676;7.986;2022-10-30T07:45:03;11.30;99.90
4856;DHT22;2442;48.676;7.986;2022-10-30T07:47:30;11.40;99.90
4856;DHT22;2442;48.676;7.986;2022-10-30T07:49:59;11.60;99.90
4856;DHT22;2442;48.676;7.986;2022-10-30T07:52:30;11.90;99.90
4856;DHT22;2442;48.676;7.986;2022-10-30T07:54:57;12.50;99.90
4856;DHT22;2442;48.676;7.986;2022-10-30T07:57:24;12.90;99.90
4856;DHT22;2442;48.676;7.986;2022-10-30T07:59:51;13.40;99.90
4856;DHT22;2442;48.676;7.986;2022-10-30T08:02:18;13.20;99.90
4856;DHT22;2442;48.676;7.986;2022-10-30T08:04:45;13.60;99.90
4856;DHT22;2442;48.676;7.986;2022-10-30T08:07:13;13.70;99.90
4856;DHT22;2442;48.676;7.986;2022-10-30T08:09:40;13.70;99.90
4856;DHT22;2442;48.676;7.986;2022-10-30T08:12:07;13.60;99.90
4856;DHT22;2442;48.676;7.986;2022-10-30T08:14:34;13.60;99.90
4856;DHT22;2442;48.676;7.986;2022-10-30T08:17:01;13.40;99.90
4856;DHT22;2442;48.676;7.986;2022-10-30T08:19:29;13.60;99.90
4856;DHT22;2442;48.676;7.986;2022-10-30T08:21:56;13.80;99.90
4856;DHT22;2442;48.676;7.986;2022-10-30T08:24:25;13.60;99.90
4856;DHT22;2442;48.676;7.986;2022-10-30T08:26:52;13.50;99.90
4856;DHT22;2442;48.676;7.986;2022-10-30T08:29:19;13.50;99.90
4856;DHT22;2442;48.676;7.986;2022-10-30T08:31:47;13.60;99.90
4856;DHT22;2442;48.676;7.986;2022-10-30T08:34:14;13.70;99.90
4856;DHT22;2442;48.676;7.986;2022-10-30T08:36:41;13.90;99.90
4856;DHT22;2442;48.676;7.986;2022-10-30T08:39:09;14.00;99.90
4856;DHT22;2442;48.676;7.986;2022-10-30T08:41:37;14.20;99.90
4856;DHT22;2442;48.676;7.986;2022-10-30T08:44:04;14.30;99.90
4856;DHT22;2442;48.676;7.986;2022-10-30T08:46:31;14.40;99.90
4856;DHT22;2442;48.676;7.986;2022-10-30T08:48:58;14.40;99.90
4856;DHT22;2442;48.676;7.986;2022-10-30T08:51:26;14.50;99.90
4856;DHT22;2442;48.676;7.986;2022-10-30T08:53:53;14.70;99.90
4856;DHT22;2442;48.676;7.986;2022-10-30T08:56:20;14.80;99.90
4856;DHT22;2442;48.676;7.986;2022-10-30T08:58:49;15.10;99.90
4856;DHT22;2442;48.676;7.986;2022-10-30T09:01:16;15.30;99.90
4856;DHT22;2442;48.676;7.986;2022-10-30T09:03:43;15.40;99.90
4856;DHT22;2442;48.676;7.986;2022-10-30T09:06:11;15.70;99.90
4856;DHT22;2442;48.676;7.986;2022-10-30T09:08:38;15.70;99.90
4856;DHT22;2442;48.676;7.986;2022-10-30T09:11:05;15.90;99.90
4856;DHT22;2442;48.676;7.986;2022-10-30T09:13:32;16.10;99.90
4856;DHT22;2442;48.676;7.986;2022-10-30T09:16:00;16.20;99.90
4856;DHT22;2442;48.676;7.986;2022-10-30T09:18:28;16.40;99.90
4856;DHT22;2442;48.676;7.986;2022-10-30T09:20:55;16.40;99.90
4856;DHT22;2442;48.676;7.986;2022-10-30T09:23:22;16.60;99.90
4856;DHT22;2442;48.676;7.986;2022-10-30T09:25:49;16.70;99.90
4856;DHT22;2442;48.676;7.986;2022-10-30T09:28:16;16.80;99.90
4856;DHT22;2442;48.676;7.986;2022-10-30T09:30:43;17.10;99.90
4856;DHT22;2442;48.676;7.986;2022-10-30T09:33:12;17.20;99.90
4856;DHT22;2442;48.676;7.986;2022-10-30T09:35:39;17.20;99.90
4856;DHT22;2442;48.676;7.986;2022-10-30T09:38:06;17.30;99.90
4856;DHT22;2442;48.676;7.986;2022-10-30T09:40:47;17.30;99.90
4856;DHT22;2442;48.676;7.986;2022-10-30T09:43:30;17.30;99.90
4856;DHT22;2442;48.676;7.986;2022-10-30T09:49:29;17.40;99.90
4856;DHT22;2442;48.676;7.986;2022-10-30T09:52:12;17.50;99.90
4856;DHT22;2442;48.676;7.986;2022-10-30T09:54:53;17.70;99.90
4856;DHT22;2442;48.676;7.986;2022-10-30T09:57:29;18.00;99.90
4856;DHT22;2442;48.676;7.986;2022-10-30T10:00:04;18.20;99.90
4856;DHT22;2442;48.676;7.986;2022-10-30T10:02:35;18.30;99.90
4856;DHT22;2442;48.676;7.986;2022-10-30T10:05:12;18.50;99.90
4856;DHT22;2442;48.676;7.986;2022-10-30T10:07:45;18.70;99.90
4856;DHT22;2442;48.676;7.986;2022-10-30T10:10:18;19.00;99.90
4856;DHT22;2442;48.676;7.986;2022-10-30T10:12:49;19.10;99.90
4856;DHT22;2442;48.676;7.986;2022-10-30T10:15:24;19.20;99.90
4856;DHT22;2442;48.676;7.986;2022-10-30T10:18:00;19.30;99.90
4856;DHT22;2442;48.676;7.986;2022-10-30T10:20:34;19.40;99.90
4856;DHT22;2442;48.676;7.986;2022-10-30T10:23:11;19.50;99.90
4856;DHT22;2442;48.676;7.986;2022-10-30T10:25:46;19.70;99.90
4856;DHT22;2442;48.676;7.986;2022-10-30T10:28:30;19.90;99.90
4856;DHT22;2442;48.676;7.986;2022-10-30T10:31:14;20.00;99.90
4856;DHT22;2442;48.676;7.986;2022-10-30T10:33:56;20.30;99.90
4856;DHT22;2442;48.676;7.986;2022-10-30T10:36:35;20.30;99.90
4856;DHT22;2442;48.676;7.986;2022-10-30T10:39:20;20.60;99.90
4856;DHT22;2442;48.676;7.986;2022-10-30T10:42:01;21.00;99.90
4856;DHT22;2442;48.676;7.986;2022-10-30T10:44:47;21.10;99.90
4856;DHT22;2442;48.676;7.986;2022-10-30T10:47:45;21.40;99.90
4856;DHT22;2442;48.676;7.986;2022-10-30T10:50:30;21.60;99.90
4856;DHT22;2442;48.676;7.986;2022-10-30T10:53:04;21.80;99.90
4856;DHT22;2442;48.676;7.986;2022-10-30T10:55:35;21.50;99.90
4856;DHT22;2442;48.676;7.986;2022-10-30T10:58:07;21.50;99.90
4856;DHT22;2442;48.676;7.986;2022-10-30T11:00:39;21.40;99.90
4856;DHT22;2442;48.676;7.986;2022-10-30T11:03:10;21.60;99.90
4856;DHT22;2442;48.676;7.986;2022-10-30T11:05:45;21.50;99.90
4856;DHT22;2442;48.676;7.986;2022-10-30T11:08:18;21.50;99.90
4856;DHT22;2442;48.676;7.986;2022-10-30T11:10:49;21.50;99.90
4856;DHT22;2442;48.676;7.986;2022-10-30T11:13:22;21.50;99.90
4856;DHT22;2442;48.676;7.986;2022-10-30T11:15:56;21.40;99.90
4856;DHT22;2442;48.676;7.986;2022-10-30T11:18:26;21.50;99.90
4856;DHT22;2442;48.676;7.986;2022-10-30T11:20:58;21.50;99.90
4856;DHT22;2442;48.676;7.986;2022-10-30T11:23:33;21.60;99.90
4856;DHT22;2442;48.676;7.986;2022-10-30T11:26:04;21.70;99.90
4856;DHT22;2442;48.676;7.986;2022-10-30T11:28:50;21.60;99.90
4856;DHT22;2442;48.676;7.986;2022-10-30T11:31:21;21.60;99.90
4856;DHT22;2442;48.676;7.986;2022-10-30T11:33:52;21.30;99.90
4856;DHT22;2442;48.676;7.986;2022-10-30T11:36:22;21.30;99.90
4856;DHT22;2442;48.676;7.986;2022-10-30T11:38:55;21.30;99.90
4856;DHT22;2442;48.676;7.986;2022-10-30T11:41:24;21.40;99.90
4856;DHT22;2442;48.676;7.986;2022-10-30T11:43:51;21.50;99.90
4856;DHT22;2442;48.676;7.986;2022-10-30T11:46:21;21.50;99.90
4856;DHT22;2442;48.676;7.986;2022-10-30T11:48:49;21.60;99.90
4856;DHT22;2442;48.676;7.986;2022-10-30T11:51:33;21.50;99.90
4856;DHT22;2442;48.676;7.986;2022-10-30T11:54:03;21.50;99.90
4856;DHT22;2442;48.676;7.986;2022-10-30T11:56:33;21.60;99.90
4856;DHT22;2442;48.676;7.986;2022-10-30T11:59:02;21.40;99.90
4856;DHT22;2442;48.676;7.986;2022-10-30T12:01:33;21.30;99.90
4856;DHT22;2442;48.676;7.986;2022-10-30T12:04:15;21.40;99.90
4856;DHT22;2442;48.676;7.986;2022-10-30T12:06:52;21.30;99.90
4856;DHT22;2442;48.676;7.986;2022-10-30T12:09:40;21.30;99.90
4856;DHT22;2442;48.676;7.986;2022-10-30T12:12:15;21.20;99.90
4856;DHT22;2442;48.676;7.986;2022-10-30T12:14:47;21.30;99.90
4856;DHT22;2442;48.676;7.986;2022-10-30T12:17:15;21.10;99.90
4856;DHT22;2442;48.676;7.986;2022-10-30T12:19:47;21.00;99.90
4856;DHT22;2442;48.676;7.986;2022-10-30T12:22:29;20.80;99.90
4856;DHT22;2442;48.676;7.986;2022-10-30T12:25:00;20.90;99.90
4856;DHT22;2442;48.676;7.986;2022-10-30T12:27:30;20.90;99.90
4856;DHT22;2442;48.676;7.986;2022-10-30T12:30:05;20.90;99.90
4856;DHT22;2442;48.676;7.986;2022-10-30T12:32:46;20.90;99.90
4856;DHT22;2442;48.676;7.986;2022-10-30T12:35:33;20.90;99.90
4856;DHT22;2442;48.676;7.986;2022-10-30T12:38:05;20.90;99.90
4856;DHT22;2442;48.676;7.986;2022-10-30T12:40:42;20.90;99.90
4856;DHT22;2442;48.676;7.986;2022-10-30T12:43:17;20.90;99.90
4856;DHT22;2442;48.676;7.986;2022-10-30T12:45:47;20.80;99.90
4856;DHT22;2442;48.676;7.986;2022-10-30T12:48:21;20.80;99.90
4856;DHT22;2442;48.676;7.986;2022-10-30T12:51:01;20.80;99.90
4856;DHT22;2442;48.676;7.986;2022-10-30T12:53:39;20.90;99.90
4856;DHT22;2442;48.676;7.986;2022-10-30T12:56:13;20.90;99.90
4856;DHT22;2442;48.676;7.986;2022-10-30T12:58:45;20.90;99.90
4856;DHT22;2442;48.676;7.986;2022-10-30T13:01:21;20.90;99.90
4856;DHT22;2442;48.676;7.986;2022-10-30T13:03:55;20.90;99.90
4856;DHT22;2442;48.676;7.986;2022-10-30T13:06:29;20.90;99.90
4856;DHT22;2442;48.676;7.986;2022-10-30T13:09:05;21.00;99.90
4856;DHT22;2442;48.676;7.986;2022-10-30T13:11:44;21.20;99.90
4856;DHT22;2442;48.676;7.986;2022-10-30T13:14:18;21.20;99.90
4856;DHT22;2442;48.676;7.986;2022-10-30T13:16:46;21.30;99.90
4856;DHT22;2442;48.676;7.986;2022-10-30T13:19:16;21.40;99.90
4856;DHT22;2442;48.676;7.986;2022-10-30T13:21:50;21.40;99.90
4856;DHT22;2442;48.676;7.986;2022-10-30T13:24:24;21.50;99.90
4856;DHT22;2442;48.676;7.986;2022-10-30T13:27:03;21.50;99.90
4856;DHT22;2442;48.676;7.986;2022-10-30T13:29:36;21.50;99.90
4856;DHT22;2442;48.676;7.986;2022-10-30T13:32:23;21.50;99.90
4856;DHT22;2442;48.676;7.986;2022-10-30T13:35:02;21.40;99.90
4856;DHT22;2442;48.676;7.986;2022-10-30T13:37:42;21.40;99.90
4856;DHT22;2442;48.676;7.986;2022-10-30T13:40:19;21.50;99.90
4856;DHT22;2442;48.676;7.986;2022-10-30T13:42:56;21.40;99.90
4856;DHT22;2442;48.676;7.986;2022-10-30T13:45:45;21.50;99.90
4856;DHT22;2442;48.676;7.986;2022-10-30T13:48:26;21.60;99.90
4856;DHT22;2442;48.676;7.986;2022-10-30T13:51:17;21.70;99.90
4856;DHT22;2442;48.676;7.986;2022-10-30T13:54:00;21.90;99.90
4856;DHT22;2442;48.676;7.986;2022-10-30T13:56:32;22.00;99.90
4856;DHT22;2442;48.676;7.986;2022-10-30T13:59:08;21.90;99.90
4856;DHT22;2442;48.676;7.986;2022-10-30T14:01:48;21.90;99.90
4856;DHT22;2442;48.676;7.986;2022-10-30T14:04:19;21.80;99.90
4856;DHT22;2442;48.676;7.986;2022-10-30T14:06:57;21.90;99.90
4856;DHT22;2442;48.676;7.986;2022-10-30T14:09:37;22.00;99.90
4856;DHT22;2442;48.676;7.986;2022-10-30T14:15:24;22.30;99.90
4856;DHT22;2442;48.676;7.986;2022-10-30T14:18:28;22.30;99.90
4856;DHT22;2442;48.676;7.986;2022-10-30T14:21:38;22.30;99.90
4856;DHT22;2442;48.676;7.986;2022-10-30T14:24:15;22.10;99.90
4856;DHT22;2442;48.676;7.986;2022-10-30T14:26:52;22.10;99.90
4856;DHT22;2442;48.676;7.986;2022-10-30T14:29:48;21.80;99.90
4856;DHT22;2442;48.676;7.986;2022-10-30T14:32:46;21.80;99.90
4856;DHT22;2442;48.676;7.986;2022-10-30T14:35:32;21.90;99.90
4856;DHT22;2442;48.676;7.986;2022-10-30T14:38:34;21.80;99.90
4856;DHT22;2442;48.676;7.986;2022-10-30T14:47:45;21.60;99.90
4856;DHT22;2442;48.676;7.986;2022-10-30T14:50:21;21.50;99.90
4856;DHT22;2442;48.676;7.986;2022-10-30T14:53:09;21.40;99.90
4856;DHT22;2442;48.676;7.986;2022-10-30T14:56:01;21.50;99.90
4856;DHT22;2442;48.676;7.986;2022-10-30T14:58:32;21.50;99.90
4856;DHT22;2442;48.676;7.986;2022-10-30T15:01:26;21.00;99.90
4856;DHT22;2442;48.676;7.986;2022-10-30T15:04:11;20.80;99.90
4856;DHT22;2442;48.676;7.986;2022-10-30T15:06:52;20.50;99.90
4856;DHT22;2442;48.676;7.986;2022-10-30T15:09:35;20.40;99.90
4856;DHT22;2442;48.676;7.986;2022-10-30T15:12:22;20.50;99.90
4856;DHT22;2442;48.676;7.986;2022-10-30T15:15:00;20.60;99.90
4856;DHT22;2442;48.676;7.986;2022-10-30T15:17:31;20.50;99.90
4856;DHT22;2442;48.676;7.986;2022-10-30T15:20:05;20.00;99.90
4856;DHT22;2442;48.676;7.986;2022-10-30T15:22:38;19.50;99.90
4856;DHT22;2442;48.676;7.986;2022-10-30T15:25:14;19.50;99.90
4856;DHT22;2442;48.676;7.986;2022-10-30T15:27:45;19.60;99.90
4856;DHT22;2442;48.676;7.986;2022-10-30T15:30:16;19.60;99.90
4856;DHT22;2442;48.676;7.986;2022-10-30T15:32:44;19.40;99.90
4856;DHT22;2442;48.676;7.986;2022-10-30T15:35:16;19.30;99.90
4856;DHT22;2442;48.676;7.986;2022-10-30T15:37:58;19.10;99.90
4856;DHT22;2442;48.676;7.986;2022-10-30T15:40:27;19.10;99.90
4856;DHT22;2442;48.676;7.986;2022-10-30T15:42:55;19.10;99.90
4856;DHT22;2442;48.676;7.986;2022-10-30T15:45:27;18.90;99.90
4856;DHT22;2442;48.676;7.986;2022-10-30T15:47:59;18.70;99.90
4856;DHT22;2442;48.676;7.986;2022-10-30T15:50:29;18.50;99.90
4856;DHT22;2442;48.676;7.986;2022-10-30T15:52:56;18.30;99.90
4856;DHT22;2442;48.676;7.986;2022-10-30T15:55:27;18.20;99.90
4856;DHT22;2442;48.676;7.986;2022-10-30T15:57:57;18.00;99.90
4856;DHT22;2442;48.676;7.986;2022-10-30T16:00:28;17.60;99.90
4856;DHT22;2442;48.676;7.986;2022-10-30T16:03:01;17.60;99.90
4856;DHT22;2442;48.676;7.986;2022-10-30T16:05:31;17.60;99.90
4856;DHT22;2442;48.676;7.986;2022-10-30T16:08:00;17.50;99.90
4856;DHT22;2442;48.676;7.986;2022-10-30T16:10:31;17.40;99.90
4856;DHT22;2442;48.676;7.986;2022-10-30T16:13:00;17.50;99.90
4856;DHT22;2442;48.676;7.986;2022-10-30T16:15:29;17.20;99.90
4856;DHT22;2442;48.676;7.986;2022-10-30T16:18:06;17.20;99.90
4856;DHT22;2442;48.676;7.986;2022-10-30T16:20:40;17.00;99.90
4856;DHT22;2442;48.676;7.986;2022-10-30T16:23:11;16.80;99.90
4856;DHT22;2442;48.676;7.986;2022-10-30T16:25:38;16.40;99.90
4856;DHT22;2442;48.676;7.986;2022-10-30T16:28:25;16.40;99.90
4856;DHT22;2442;48.676;7.986;2022-10-30T16:30:55;16.30;99.90
4856;DHT22;2442;48.676;7.986;2022-10-30T16:33:26;16.20;99.90
4856;DHT22;2442;48.676;7.986;2022-10-30T16:35:56;16.10;99.90
4856;DHT22;2442;48.676;7.986;2022-10-30T16:38:27;16.10;99.90
4856;DHT22;2442;48.676;7.986;2022-10-30T16:40:57;16.10;99.90
4856;DHT22;2442;48.676;7.986;2022-10-30T16:43:27;16.00;99.90
4856;DHT22;2442;48.676;7.986;2022-10-30T16:45:56;15.70;99.90
4856;DHT22;2442;48.676;7.986;2022-10-30T16:48:59;15.80;99.90